Time;durP1;ratioP1;P1;durP2;ratioP2;P2;SDS_P1;SDS_P2;PMS_P1;PMS_P2;Temp;Humidity;BMP_temperature;BMP_pressure;BME280_temperature;BME280_humidity;BME280_pressure;Samples;Min_cycle;Max_cycle;Signal;HPM_P1;HPM_P2
2022/10/09 00:01:51;;;;;;;12.02;5.45;;;8.70;99.90;;;;;;5034874;28;20042;-63
2022/10/09 00:04:18;;;;;;;12.68;4.70;;;8.70;99.90;;;;;;5041860;28;20041;-67
2022/10/09 00:06:44;;;;;;;10.90;5.05;;;8.70;99.90;;;;;;5054243;28;20049;-63
2022/10/09 00:09:13;;;;;;;13.98;6.05;;;8.70;99.90;;;;;;5054347;28;20057;-65
2022/10/09 00:11:39;;;;;;;10.65;5.32;;;8.60;99.90;;;;;;5036358;28;20053;-63
2022/10/09 00:14:06;;;;;;;12.18;5.05;;;8.60;99.90;;;;;;5034284;28;20049;-62
2022/10/09 00:16:33;;;;;;;12.32;5.68;;;8.60;99.90;;;;;;5033624;28;20124;-61
2022/10/09 00:18:59;;;;;;;15.27;5.20;;;8.50;99.90;;;;;;5034756;28;20045;-62
2022/10/09 00:21:26;;;;;;;11.05;5.00;;;8.50;99.90;;;;;;5033717;28;20463;-67
2022/10/09 00:23:53;;;;;;;12.32;5.00;;;8.50;99.90;;;;;;5036773;28;20075;-65
2022/10/09 00:26:20;;;;;;;9.68;4.78;;;8.50;99.90;;;;;;5016787;28;20065;-62
2022/10/09 00:28:46;;;;;;;12.95;5.53;;;8.50;99.90;;;;;;5034392;28;20128;-63
2022/10/09 00:31:13;;;;;;;12.13;5.07;;;8.50;99.90;;;;;;5033580;28;20045;-64
2022/10/09 00:33:40;;;;;;;15.70;5.20;;;8.40;99.90;;;;;;5032669;28;20485;-63
2022/10/09 00:36:07;;;;;;;10.73;4.88;;;8.40;99.90;;;;;;5032025;28;20049;-66
2022/10/09 00:38:33;;;;;;;11.55;4.47;;;8.40;99.90;;;;;;5032937;28;20068;-64
2022/10/09 00:41:00;;;;;;;14.30;4.78;;;8.40;99.90;;;;;;5033192;28;20049;-61
2022/10/09 00:43:27;;;;;;;9.60;4.18;;;8.40;99.90;;;;;;5031793;28;20421;-63
2022/10/09 00:45:53;;;;;;;11.45;4.30;;;8.40;99.90;;;;;;5032724;28;20041;-65
2022/10/09 00:48:20;;;;;;;8.70;4.22;;;8.40;99.90;;;;;;5032874;28;20046;-62
2022/10/09 00:50:47;;;;;;;9.93;4.13;;;8.30;99.90;;;;;;5033867;28;20069;-63
2022/10/09 00:53:13;;;;;;;9.10;3.85;;;8.30;99.90;;;;;;5033599;28;20133;-64
2022/10/09 00:55:40;;;;;;;10.27;4.20;;;8.20;99.90;;;;;;5033769;28;20045;-65
2022/10/09 00:58:07;;;;;;;9.00;4.05;;;8.20;99.90;;;;;;5033672;28;20128;-63
2022/10/09 01:00:33;;;;;;;7.85;3.83;;;8.20;99.90;;;;;;5033670;28;20042;-61
2022/10/09 01:03:00;;;;;;;7.22;3.97;;;8.30;99.90;;;;;;5033705;28;20085;-64
2022/10/09 01:05:27;;;;;;;9.00;4.07;;;8.20;99.90;;;;;;5016025;28;20073;-63
2022/10/09 01:07:54;;;;;;;10.18;4.35;;;8.20;99.90;;;;;;5033888;28;20041;-61
2022/10/09 01:10:20;;;;;;;10.60;4.50;;;8.20;99.90;;;;;;5033754;28;20121;-62
2022/10/09 01:12:47;;;;;;;10.48;4.45;;;8.20;99.90;;;;;;5033909;28;20041;-65
2022/10/09 01:15:14;;;;;;;9.70;4.38;;;8.20;99.90;;;;;;5033545;28;20056;-66
2022/10/09 01:17:41;;;;;;;11.40;4.38;;;8.10;99.90;;;;;;5033278;28;20037;-64
2022/10/09 01:20:08;;;;;;;10.20;4.22;;;8.10;99.90;;;;;;5034065;28;20046;-63
2022/10/09 01:22:34;;;;;;;9.48;3.50;;;8.10;99.90;;;;;;5033568;28;20055;-64
2022/10/09 01:25:01;;;;;;;10.18;4.43;;;8.10;99.90;;;;;;5033635;28;20148;-65
2022/10/09 01:27:28;;;;;;;12.80;4.30;;;8.10;99.90;;;;;;5033907;28;20477;-63
2022/10/09 01:29:54;;;;;;;10.43;3.80;;;8.10;99.90;;;;;;5015878;28;20370;-61
2022/10/09 01:32:21;;;;;;;7.50;3.38;;;8.10;99.90;;;;;;5033837;28;20034;-62
2022/10/09 01:34:48;;;;;;;8.98;3.67;;;8.10;99.90;;;;;;5033307;28;20077;-64
2022/10/09 01:37:15;;;;;;;10.88;3.80;;;8.10;99.90;;;;;;5033146;28;20124;-62
2022/10/09 01:39:41;;;;;;;11.10;4.00;;;8.00;99.90;;;;;;5033193;28;20124;-64
2022/10/09 01:42:08;;;;;;;8.88;4.00;;;8.00;99.90;;;;;;5033732;28;20545;-62
2022/10/09 01:44:35;;;;;;;12.63;3.72;;;8.00;99.90;;;;;;5033082;28;20046;-64
2022/10/09 01:47:03;;;;;;;8.23;3.65;;;8.00;99.90;;;;;;5033890;28;20073;-63
2022/10/09 01:49:30;;;;;;;7.85;3.40;;;7.90;99.90;;;;;;5035691;28;20048;-61
2022/10/09 01:51:56;;;;;;;9.23;4.18;;;7.90;99.90;;;;;;5037255;28;20045;-64
2022/10/09 01:54:23;;;;;;;7.50;3.35;;;7.90;99.90;;;;;;5037372;28;20460;-63
2022/10/09 01:56:50;;;;;;;14.65;4.03;;;7.90;99.90;;;;;;5037385;28;20076;-62
2022/10/09 01:59:16;;;;;;;7.72;3.70;;;7.80;99.90;;;;;;5037248;28;20077;-63
2022/10/09 02:01:43;;;;;;;10.60;3.30;;;7.80;99.90;;;;;;5036773;28;20037;-61
2022/10/09 02:04:10;;;;;;;7.85;2.83;;;7.80;99.90;;;;;;5036934;28;20401;-62
2022/10/09 02:06:39;;;;;;;9.07;3.30;;;7.80;99.90;;;;;;5037036;28;20457;-65
2022/10/09 02:09:05;;;;;;;6.65;3.38;;;7.80;99.90;;;;;;5036808;28;20053;-63
2022/10/09 02:11:32;;;;;;;7.90;3.30;;;7.70;99.90;;;;;;5019146;28;20550;-64
2022/10/09 02:13:59;;;;;;;8.70;3.25;;;7.70;99.90;;;;;;5036877;28;20065;-62
2022/10/09 02:16:25;;;;;;;6.43;3.00;;;7.70;99.90;;;;;;5036573;28;20046;-63
2022/10/09 02:18:52;;;;;;;7.97;3.40;;;7.70;99.90;;;;;;5036635;28;20033;-63
2022/10/09 02:21:19;;;;;;;6.25;2.85;;;7.70;99.90;;;;;;5036427;28;20045;-63
2022/10/09 02:23:45;;;;;;;7.13;3.40;;;7.70;99.90;;;;;;5036746;28;20455;-64
2022/10/09 02:26:12;;;;;;;9.25;3.55;;;7.60;99.90;;;;;;5036550;28;20411;-62
2022/10/09 02:28:39;;;;;;;9.52;3.60;;;7.60;99.90;;;;;;5036464;28;20048;-61
2022/10/09 02:31:11;;;;;;;6.40;3.25;;;7.60;99.90;;;;;;5036840;28;20073;-63
2022/10/09 02:33:38;;;;;;;9.60;3.45;;;7.60;99.90;;;;;;5018902;28;20084;-62
2022/10/09 02:36:04;;;;;;;7.53;3.63;;;7.60;99.90;;;;;;5036824;28;20050;-64
2022/10/09 02:38:31;;;;;;;10.05;4.50;;;7.60;99.90;;;;;;5018859;28;20047;-63
2022/10/09 02:40:58;;;;;;;11.95;4.28;;;7.60;99.90;;;;;;5036235;28;20403;-66
2022/10/09 02:43:25;;;;;;;11.60;4.00;;;7.60;99.90;;;;;;5036157;28;20033;-66
2022/10/09 02:45:51;;;;;;;11.23;3.72;;;7.50;99.90;;;;;;5036097;28;20512;-63
2022/10/09 02:48:18;;;;;;;9.75;3.63;;;7.50;99.90;;;;;;5036221;28;20475;-63
2022/10/09 02:50:45;;;;;;;10.82;3.40;;;7.50;99.90;;;;;;5036456;28;20107;-63
2022/10/09 02:53:12;;;;;;;10.77;3.10;;;7.50;99.90;;;;;;5036368;28;20045;-66
2022/10/09 02:55:39;;;;;;;7.35;3.42;;;7.50;99.90;;;;;;5018220;28;20041;-62
2022/10/09 02:58:06;;;;;;;8.38;3.40;;;7.40;99.90;;;;;;5035769;28;20037;-63
2022/10/09 03:00:32;;;;;;;7.25;3.15;;;7.40;99.90;;;;;;5035112;28;20068;-62
2022/10/09 03:02:59;;;;;;;8.00;2.45;;;7.40;99.90;;;;;;5036198;28;20125;-62
2022/10/09 03:05:26;;;;;;;8.05;3.00;;;7.40;99.90;;;;;;5036084;28;20132;-64
2022/10/09 03:07:52;;;;;;;8.45;2.88;;;7.40;99.90;;;;;;5017762;28;20559;-65
2022/10/09 03:10:19;;;;;;;8.20;2.63;;;7.30;99.90;;;;;;5017674;28;20491;-62
2022/10/09 03:12:46;;;;;;;10.48;2.90;;;7.30;99.90;;;;;;5035674;28;20405;-63
2022/10/09 03:15:13;;;;;;;7.65;2.90;;;7.30;99.90;;;;;;5035401;28;20037;-65
2022/10/09 03:17:40;;;;;;;7.85;2.90;;;7.30;99.90;;;;;;5035729;28;20065;-64
2022/10/09 03:20:06;;;;;;;7.07;3.20;;;7.30;99.90;;;;;;5035426;28;20061;-63
2022/10/09 03:22:33;;;;;;;6.40;3.10;;;7.30;99.90;;;;;;5035493;28;20140;-62
2022/10/09 03:25:00;;;;;;;8.13;3.08;;;7.30;99.90;;;;;;5035350;28;20058;-60
2022/10/09 03:27:26;;;;;;;7.20;2.97;;;7.30;99.90;;;;;;5035307;28;20464;-62
2022/10/09 03:29:53;;;;;;;7.25;3.03;;;7.30;99.90;;;;;;5035598;28;20528;-64
2022/10/09 03:32:20;;;;;;;11.07;3.03;;;7.20;99.90;;;;;;5035546;28;20469;-60
2022/10/09 03:34:47;;;;;;;11.52;3.10;;;7.20;99.90;;;;;;5035007;28;20100;-65
2022/10/09 03:37:13;;;;;;;11.15;2.83;;;7.20;99.90;;;;;;5017486;28;20091;-62
2022/10/09 03:39:40;;;;;;;5.63;2.50;;;7.20;99.90;;;;;;5035349;28;20148;-63
2022/10/09 03:42:07;;;;;;;8.80;2.75;;;7.20;99.90;;;;;;5017657;28;20120;-61
2022/10/09 03:44:33;;;;;;;5.97;2.78;;;7.20;99.90;;;;;;5035076;28;20370;-64
2022/10/09 03:47:00;;;;;;;8.05;2.75;;;7.20;99.90;;;;;;5035316;28;20064;-64
2022/10/09 03:49:27;;;;;;;8.07;2.70;;;7.20;99.90;;;;;;5035461;28;20125;-65
2022/10/09 03:51:54;;;;;;;9.02;2.53;;;7.20;99.90;;;;;;5034747;28;20076;-62
2022/10/09 03:54:20;;;;;;;7.72;2.70;;;7.20;99.90;;;;;;5035115;28;20120;-63
2022/10/09 03:56:47;;;;;;;8.55;2.72;;;7.20;99.90;;;;;;5034717;28;20076;-64
2022/10/09 03:59:14;;;;;;;5.47;2.78;;;7.10;99.90;;;;;;5034623;28;20076;-64
2022/10/09 04:01:40;;;;;;;6.25;2.58;;;7.10;99.90;;;;;;5035072;28;20112;-66
2022/10/09 04:04:07;;;;;;;10.23;2.78;;;7.10;99.90;;;;;;5034463;28;20132;-63
2022/10/09 04:06:34;;;;;;;8.35;2.92;;;7.00;99.90;;;;;;5035114;28;20120;-65
2022/10/09 04:09:00;;;;;;;5.78;3.05;;;7.00;99.90;;;;;;5035197;28;20049;-62
2022/10/09 04:11:27;;;;;;;6.30;2.47;;;7.00;99.90;;;;;;5034467;28;20128;-63
2022/10/09 04:13:54;;;;;;;6.70;2.33;;;7.00;99.90;;;;;;5034876;28;20132;-64
2022/10/09 04:16:20;;;;;;;9.27;2.83;;;7.00;99.90;;;;;;5034796;28;20076;-61
2022/10/09 04:18:47;;;;;;;8.15;3.00;;;7.00;99.90;;;;;;5034845;28;20076;-63
2022/10/09 04:21:14;;;;;;;8.60;2.60;;;7.00;99.90;;;;;;5017030;28;20045;-63
2022/10/09 04:23:41;;;;;;;7.20;2.60;;;7.00;99.90;;;;;;5034230;28;20065;-63
2022/10/09 04:26:07;;;;;;;6.22;2.50;;;7.00;99.90;;;;;;5034166;28;20053;-66
2022/10/09 04:28:34;;;;;;;5.32;2.40;;;7.00;99.90;;;;;;5016839;28;20424;-64
2022/10/09 04:31:01;;;;;;;7.93;2.45;;;7.00;99.90;;;;;;5034618;28;20181;-65
2022/10/09 04:33:27;;;;;;;8.45;3.35;;;7.00;99.90;;;;;;5034639;28;20128;-64
2022/10/09 04:35:54;;;;;;;5.55;2.38;;;7.00;99.90;;;;;;5033970;28;20041;-63
2022/10/09 04:38:21;;;;;;;9.82;3.90;;;7.00;99.90;;;;;;5033850;28;20052;-64
2022/10/09 04:40:48;;;;;;;5.88;3.20;;;6.90;99.90;;;;;;5034358;28;20084;-63
2022/10/09 04:43:14;;;;;;;8.55;2.92;;;6.90;99.90;;;;;;5034585;28;20124;-61
2022/10/09 04:45:41;;;;;;;13.25;3.00;;;6.90;99.90;;;;;;5034446;28;20547;-66
2022/10/09 04:48:08;;;;;;;8.95;2.85;;;6.90;99.90;;;;;;5034359;28;20465;-65
2022/10/09 04:50:34;;;;;;;9.13;3.00;;;6.80;99.90;;;;;;5033813;28;20119;-63
2022/10/09 04:53:01;;;;;;;8.23;3.35;;;6.80;99.90;;;;;;5033795;28;20056;-62
2022/10/09 04:55:28;;;;;;;7.22;2.75;;;6.80;99.90;;;;;;5033732;28;20041;-63
2022/10/09 04:57:54;;;;;;;7.40;2.92;;;6.80;99.90;;;;;;5033672;28;20174;-62
2022/10/09 05:00:21;;;;;;;7.10;2.67;;;6.80;99.90;;;;;;5015913;28;20124;-66
2022/10/09 05:02:48;;;;;;;8.98;2.55;;;6.80;99.90;;;;;;5034095;28;20448;-64
2022/10/09 05:05:15;;;;;;;8.45;2.35;;;6.80;99.90;;;;;;5033393;28;20388;-64
2022/10/09 05:07:42;;;;;;;6.60;2.45;;;6.80;99.90;;;;;;5033392;28;20068;-63
2022/10/09 05:10:08;;;;;;;7.03;2.65;;;6.90;99.90;;;;;;5033463;28;20117;-64
2022/10/09 05:12:35;;;;;;;7.57;2.70;;;6.80;99.90;;;;;;5033478;28;20076;-64
2022/10/09 05:15:02;;;;;;;8.07;3.05;;;6.80;99.90;;;;;;5033748;28;20084;-66
2022/10/09 05:17:28;;;;;;;7.20;2.70;;;6.80;99.90;;;;;;5033181;28;20120;-64
2022/10/09 05:19:55;;;;;;;6.18;2.70;;;6.80;99.90;;;;;;5033187;28;20041;-61
2022/10/09 05:22:22;;;;;;;7.13;2.50;;;6.80;99.90;;;;;;5033764;28;20141;-64
2022/10/09 05:24:49;;;;;;;8.55;3.15;;;6.80;99.90;;;;;;5039309;28;20419;-65
2022/10/09 05:27:15;;;;;;;5.43;2.92;;;6.70;99.90;;;;;;5040450;28;20048;-65
2022/10/09 05:29:42;;;;;;;8.88;2.92;;;6.70;99.90;;;;;;5040417;28;20045;-64
2022/10/09 05:32:09;;;;;;;7.68;2.78;;;6.70;99.90;;;;;;5040216;28;20041;-64
2022/10/09 05:34:35;;;;;;;6.32;2.53;;;6.70;99.90;;;;;;5039922;28;20481;-62
2022/10/09 05:37:02;;;;;;;8.48;2.60;;;6.70;99.90;;;;;;5039909;28;20072;-63
2022/10/09 05:39:31;;;;;;;7.90;2.95;;;6.70;99.90;;;;;;5040061;28;20129;-63
2022/10/09 05:41:57;;;;;;;9.80;3.13;;;6.70;99.90;;;;;;5040230;28;20168;-63
2022/10/09 05:44:24;;;;;;;9.25;3.42;;;6.70;99.90;;;;;;5040271;28;20042;-64
2022/10/09 05:46:51;;;;;;;6.00;2.72;;;6.60;99.90;;;;;;5040309;28;20033;-66
2022/10/09 05:49:17;;;;;;;8.43;3.15;;;6.70;99.90;;;;;;5039510;28;20049;-62
2022/10/09 05:51:44;;;;;;;10.85;3.03;;;6.70;99.90;;;;;;5039713;28;20046;-61
2022/10/09 05:54:11;;;;;;;12.07;3.15;;;6.70;99.90;;;;;;5039585;28;20048;-66
2022/10/09 05:56:38;;;;;;;8.13;3.15;;;6.70;99.90;;;;;;5040282;28;20069;-61
2022/10/09 05:59:04;;;;;;;8.55;3.25;;;6.70;99.90;;;;;;5040084;28;20372;-65
2022/10/09 06:01:31;;;;;;;6.28;3.38;;;6.70;99.90;;;;;;5039782;28;20041;-62
2022/10/09 06:03:58;;;;;;;7.55;2.95;;;6.70;99.90;;;;;;5039669;28;20380;-63
2022/10/09 06:06:25;;;;;;;8.63;3.10;;;6.70;99.90;;;;;;5039562;28;20072;-63
2022/10/09 06:08:51;;;;;;;6.00;3.22;;;6.60;99.90;;;;;;5039515;28;20591;-61
2022/10/09 06:11:18;;;;;;;6.95;3.13;;;6.60;99.90;;;;;;5039936;28;20103;-64
2022/10/09 06:13:45;;;;;;;5.45;2.67;;;6.60;99.90;;;;;;5039774;28;20087;-61
2022/10/09 06:16:12;;;;;;;8.38;3.05;;;6.60;99.90;;;;;;5039573;28;20050;-65
2022/10/09 06:18:39;;;;;;;9.80;3.60;;;6.60;99.90;;;;;;5039488;28;20041;-65
2022/10/09 06:21:05;;;;;;;9.15;3.13;;;6.60;99.90;;;;;;5039698;28;20069;-64
2022/10/09 06:23:32;;;;;;;8.00;3.53;;;6.50;99.90;;;;;;5039556;28;20037;-63
2022/10/09 06:25:59;;;;;;;9.45;3.67;;;6.50;99.90;;;;;;5037965;28;20049;-63
2022/10/09 06:28:26;;;;;;;7.68;3.40;;;6.50;99.90;;;;;;5039988;28;20068;-61
2022/10/09 06:30:53;;;;;;;8.80;3.35;;;6.50;99.90;;;;;;5039634;28;20045;-65
2022/10/09 06:33:19;;;;;;;8.35;3.75;;;6.50;99.90;;;;;;5021792;28;20477;-63
2022/10/09 06:35:46;;;;;;;9.18;4.07;;;6.50;99.90;;;;;;5036248;28;20030;-63
2022/10/09 06:38:14;;;;;;;10.15;3.40;;;6.50;99.90;;;;;;5036656;28;20037;-63
2022/10/09 06:40:41;;;;;;;9.45;4.10;;;6.40;99.90;;;;;;5036360;28;20042;-62
2022/10/09 06:43:07;;;;;;;6.55;3.28;;;6.40;99.90;;;;;;5036893;28;20045;-60
2022/10/09 06:45:34;;;;;;;8.15;3.40;;;6.40;99.90;;;;;;5035849;28;20113;-62
2022/10/09 06:48:01;;;;;;;8.43;3.55;;;6.40;99.90;;;;;;5036057;28;20041;-61
2022/10/09 06:50:27;;;;;;;7.35;3.60;;;6.50;99.90;;;;;;5035815;28;20049;-65
2022/10/09 06:52:54;;;;;;;10.50;3.40;;;6.50;99.90;;;;;;5036363;28;20068;-66
2022/10/09 06:55:21;;;;;;;12.02;4.68;;;6.50;99.90;;;;;;5036232;28;20116;-63
2022/10/09 06:57:54;;;;;;;12.75;4.55;;;6.60;99.90;;;;;;5035996;28;20052;-61
2022/10/09 07:00:20;;;;;;;10.60;4.80;;;6.60;99.90;;;;;;5035760;28;20087;-64
2022/10/09 07:02:48;;;;;;;9.25;4.35;;;6.60;99.90;;;;;;5035650;28;20668;-65
2022/10/09 07:05:15;;;;;;;8.77;4.50;;;6.60;99.90;;;;;;5035407;28;20048;-62
2022/10/09 07:07:42;;;;;;;9.93;4.05;;;6.70;99.90;;;;;;5017687;28;20049;-61
2022/10/09 07:10:09;;;;;;;7.78;4.00;;;6.70;99.90;;;;;;5036102;28;20041;-65
2022/10/09 07:12:35;;;;;;;8.05;3.72;;;6.80;99.90;;;;;;5035616;28;20056;-63
2022/10/09 07:15:02;;;;;;;10.00;3.70;;;6.80;99.90;;;;;;5017455;28;20099;-64
2022/10/09 07:17:29;;;;;;;9.88;4.35;;;6.80;99.90;;;;;;5035342;28;20045;-61
2022/10/09 07:19:55;;;;;;;11.43;3.95;;;6.90;99.90;;;;;;5035567;28;20083;-67
2022/10/09 07:22:22;;;;;;;10.38;3.95;;;6.90;99.90;;;;;;5035867;28;20041;-62
2022/10/09 07:24:52;;;;;;;7.47;3.83;;;7.00;99.90;;;;;;5035063;28;20104;-61
2022/10/09 07:27:19;;;;;;;6.90;3.20;;;7.10;99.90;;;;;;5035371;28;20041;-64
2022/10/09 07:29:46;;;;;;;9.05;3.88;;;7.10;99.90;;;;;;5018314;28;20381;-66
2022/10/09 07:32:13;;;;;;;12.95;3.80;;;7.20;99.90;;;;;;5035647;28;20045;-62
2022/10/09 07:34:39;;;;;;;10.05;3.30;;;7.20;99.90;;;;;;5035055;28;20087;-62
2022/10/09 07:37:06;;;;;;;9.00;3.45;;;7.30;99.90;;;;;;5035406;28;20037;-65
2022/10/09 07:39:34;;;;;;;8.02;3.35;;;7.40;99.90;;;;;;5034876;28;20085;-62
2022/10/09 07:42:01;;;;;;;6.45;3.47;;;7.40;99.90;;;;;;5034891;28;20116;-62
2022/10/09 07:44:27;;;;;;;6.72;3.10;;;7.50;99.90;;;;;;5035018;28;20042;-61
2022/10/09 07:46:54;;;;;;;7.70;2.95;;;7.60;99.90;;;;;;5034666;28;20035;-64
2022/10/09 07:49:21;;;;;;;9.07;3.10;;;7.60;99.90;;;;;;5035287;28;20050;-65
2022/10/09 07:51:47;;;;;;;10.73;3.13;;;7.80;99.90;;;;;;5017784;28;20041;-61
2022/10/09 07:54:14;;;;;;;7.43;2.50;;;7.90;99.90;;;;;;5034813;28;20460;-64
2022/10/09 07:56:41;;;;;;;8.95;2.25;;;8.00;99.90;;;;;;5034514;28;20077;-64
2022/10/09 07:59:07;;;;;;;9.05;2.15;;;8.10;99.90;;;;;;5034410;28;20096;-63
2022/10/09 08:01:34;;;;;;;7.75;2.10;;;8.30;99.90;;;;;;5017178;28;20079;-63
2022/10/09 08:04:01;;;;;;;8.20;1.75;;;8.40;99.90;;;;;;5034613;28;20084;-63
2022/10/09 08:06:28;;;;;;;8.18;2.00;;;8.60;99.90;;;;;;5016528;28;20053;-64
2022/10/09 08:08:54;;;;;;;5.43;1.55;;;8.70;99.90;;;;;;5016696;28;20551;-65
2022/10/09 08:11:21;;;;;;;10.57;2.15;;;8.80;99.90;;;;;;5034433;28;20041;-67
2022/10/09 08:13:48;;;;;;;10.63;1.90;;;9.00;99.90;;;;;;5034337;28;20095;-65
2022/10/09 08:16:14;;;;;;;11.13;1.80;;;9.10;99.90;;;;;;5033690;28;20045;-66
2022/10/09 08:18:41;;;;;;;6.68;1.70;;;9.20;99.90;;;;;;5033895;28;20077;-64
2022/10/09 08:21:08;;;;;;;9.07;1.90;;;9.30;99.90;;;;;;5034745;28;20077;-64
2022/10/09 08:23:35;;;;;;;11.45;1.98;;;9.50;99.90;;;;;;5034342;28;20038;-64
2022/10/09 08:26:03;;;;;;;8.88;2.10;;;9.60;99.90;;;;;;5034052;28;20107;-65
2022/10/09 08:28:29;;;;;;;4.25;1.52;;;9.70;99.90;;;;;;5016973;28;20072;-63
2022/10/09 08:30:56;;;;;;;7.03;1.65;;;9.80;99.90;;;;;;5034286;28;20120;-61
2022/10/09 08:33:24;;;;;;;7.82;1.75;;;9.90;99.90;;;;;;5034041;28;20075;-66
2022/10/09 08:35:52;;;;;;;5.80;1.63;;;10.10;99.90;;;;;;5033990;28;20480;-62
2022/10/09 08:38:18;;;;;;;7.55;1.90;;;10.10;99.90;;;;;;5034412;28;20053;-61
2022/10/09 08:41:05;;;;;;;7.97;2.42;;;10.20;99.90;;;;;;5033331;28;20026;-62
2022/10/09 08:43:32;;;;;;;6.00;1.63;;;10.40;99.90;;;;;;5034239;28;20057;-63
2022/10/09 08:45:59;;;;;;;5.82;1.75;;;10.50;99.90;;;;;;5033927;28;20128;-62
2022/10/09 08:48:26;;;;;;;8.77;1.77;;;10.60;99.90;;;;;;5033939;28;20049;-63
2022/10/09 08:50:52;;;;;;;6.50;1.58;;;10.80;99.90;;;;;;5020219;28;20125;-63
2022/10/09 08:53:19;;;;;;;6.97;1.63;;;10.90;99.90;;;;;;5033642;28;20127;-59
2022/10/09 08:55:46;;;;;;;9.20;1.75;;;11.00;99.90;;;;;;5033405;28;20045;-62
2022/10/09 08:58:13;;;;;;;8.57;1.60;;;11.20;99.90;;;;;;5033116;28;20045;-63
2022/10/09 09:00:39;;;;;;;8.65;1.70;;;11.30;99.90;;;;;;5026455;28;20431;-63
2022/10/09 09:03:06;;;;;;;8.43;1.58;;;11.30;99.90;;;;;;5026970;28;20033;-60
2022/10/09 09:05:33;;;;;;;7.97;1.65;;;11.40;99.90;;;;;;5052708;28;20072;-62
2022/10/09 09:08:00;;;;;;;7.07;1.60;;;11.50;99.90;;;;;;5036197;28;20044;-63
2022/10/09 09:10:26;;;;;;;6.97;1.75;;;11.60;99.90;;;;;;5033417;28;20156;-61
2022/10/09 09:12:53;;;;;;;6.35;1.80;;;11.70;99.90;;;;;;5037685;28;20050;-62
2022/10/09 09:15:20;;;;;;;10.20;1.73;;;11.80;99.90;;;;;;5033636;28;20128;-61
2022/10/09 09:17:47;;;;;;;8.60;1.75;;;11.80;99.90;;;;;;5032850;28;20071;-62
2022/10/09 09:20:14;;;;;;;4.57;1.50;;;11.90;99.90;;;;;;5032124;28;20096;-61
2022/10/09 09:22:40;;;;;;;11.65;1.67;;;12.00;99.90;;;;;;5050246;28;20072;-61
2022/10/09 09:25:07;;;;;;;7.97;2.20;;;12.10;99.90;;;;;;5033038;28;20084;-61
2022/10/09 09:27:35;;;;;;;7.38;1.50;;;12.10;99.90;;;;;;5033371;28;20052;-62
2022/10/09 09:30:02;;;;;;;11.38;2.40;;;12.10;99.90;;;;;;5032639;28;20551;-63
2022/10/09 09:32:29;;;;;;;9.00;1.80;;;12.20;99.90;;;;;;5033149;28;20462;-66
2022/10/09 09:34:55;;;;;;;8.98;1.88;;;12.20;99.90;;;;;;5033565;28;20459;-65
2022/10/09 09:37:22;;;;;;;11.63;1.75;;;12.30;99.90;;;;;;5032968;28;20128;-65
2022/10/09 09:39:49;;;;;;;6.90;1.60;;;12.40;99.90;;;;;;5033450;28;20092;-64
2022/10/09 09:42:35;;;;;;;9.45;1.80;;;12.40;99.90;;;;;;5026793;28;20041;-65
2022/10/09 09:45:02;;;;;;;7.75;1.55;;;12.60;99.90;;;;;;5033162;28;20128;-67
2022/10/09 09:47:29;;;;;;;10.07;1.83;;;12.70;99.90;;;;;;5033392;28;20124;-65
2022/10/09 09:49:55;;;;;;;7.68;1.75;;;12.70;99.90;;;;;;5032811;28;20052;-66
2022/10/09 09:52:22;;;;;;;8.98;1.55;;;12.80;99.90;;;;;;5026851;28;20461;-63
2022/10/09 09:54:49;;;;;;;9.68;1.90;;;12.90;99.90;;;;;;5036428;28;20049;-63
2022/10/09 09:57:15;;;;;;;8.95;1.65;;;13.00;99.90;;;;;;5032155;28;20041;-68
2022/10/09 09:59:47;;;;;;;11.20;1.80;;;13.10;99.90;;;;;;5031976;28;20128;-64
2022/10/09 10:02:14;;;;;;;7.85;1.70;;;13.10;99.90;;;;;;5029651;28;20726;-67
2022/10/09 10:04:41;;;;;;;9.30;2.00;;;13.20;99.90;;;;;;5037984;28;20044;-62
2022/10/09 10:07:08;;;;;;;6.28;1.48;;;13.20;99.90;;;;;;5039628;28;20042;-65
2022/10/09 10:09:35;;;;;;;10.95;1.85;;;13.20;99.90;;;;;;5033016;28;20041;-68
2022/10/09 10:12:02;;;;;;;7.65;1.55;;;13.30;99.90;;;;;;5036649;28;20037;-64
2022/10/09 10:14:29;;;;;;;8.68;1.83;;;13.30;99.90;;;;;;5049686;28;20045;-63
2022/10/09 10:16:56;;;;;;;6.43;1.45;;;13.40;99.90;;;;;;5036909;28;20087;-66
2022/10/09 10:19:22;;;;;;;6.80;1.50;;;13.50;99.90;;;;;;5036852;28;20084;-65
2022/10/09 10:21:49;;;;;;;8.23;1.90;;;13.50;99.90;;;;;;5036210;28;20065;-65
2022/10/09 10:24:16;;;;;;;9.23;1.85;;;13.50;99.90;;;;;;5036510;28;20055;-67
2022/10/09 10:26:42;;;;;;;5.57;1.30;;;13.60;99.90;;;;;;5036010;28;20037;-62
2022/10/09 10:29:09;;;;;;;8.27;1.80;;;13.70;99.90;;;;;;5036477;28;20041;-64
2022/10/09 10:31:36;;;;;;;8.63;1.80;;;13.70;99.90;;;;;;5036516;28;20049;-65
2022/10/09 10:34:03;;;;;;;9.73;1.80;;;13.80;99.90;;;;;;5035718;28;20571;-63
2022/10/09 10:36:29;;;;;;;9.65;2.03;;;14.00;99.90;;;;;;5036335;28;20145;-65
2022/10/09 10:38:56;;;;;;;6.75;1.98;;;14.10;99.90;;;;;;5035859;28;20045;-63
2022/10/09 10:41:23;;;;;;;8.45;1.80;;;14.10;99.90;;;;;;5036187;28;20037;-64
2022/10/09 10:43:50;;;;;;;7.30;1.83;;;14.20;99.90;;;;;;5036413;28;20046;-68
2022/10/09 10:46:16;;;;;;;6.63;1.80;;;14.20;99.90;;;;;;5036165;28;20116;-63
2022/10/09 10:48:45;;;;;;;10.18;1.88;;;14.30;99.90;;;;;;5036189;28;20493;-64
2022/10/09 10:51:12;;;;;;;8.25;1.83;;;14.30;99.90;;;;;;5035543;28;20068;-66
2022/10/09 10:53:39;;;;;;;7.35;1.75;;;14.30;99.90;;;;;;5036039;28;20120;-64
2022/10/09 10:56:05;;;;;;;8.48;1.85;;;14.30;99.90;;;;;;5035427;28;20042;-63
2022/10/09 10:58:32;;;;;;;6.80;1.90;;;14.40;99.90;;;;;;5035918;28;20063;-67
2022/10/09 11:00:59;;;;;;;8.02;1.42;;;14.50;99.90;;;;;;5035272;28;20045;-62
2022/10/09 11:03:26;;;;;;;8.25;2.00;;;14.50;99.90;;;;;;5035684;28;20052;-63
2022/10/09 11:05:52;;;;;;;6.10;1.80;;;14.60;99.90;;;;;;5017599;28;20041;-64
2022/10/09 11:08:19;;;;;;;7.00;1.33;;;14.60;99.90;;;;;;5035774;28;20057;-64
2022/10/09 11:10:46;;;;;;;8.02;2.05;;;14.70;99.20;;;;;;5035821;28;20072;-65
2022/10/09 11:13:13;;;;;;;8.20;1.90;;;14.70;99.00;;;;;;5035782;28;20045;-63
2022/10/09 11:15:39;;;;;;;7.40;1.50;;;14.70;98.90;;;;;;5034998;28;20120;-66
2022/10/09 11:18:06;;;;;;;5.90;1.65;;;14.70;98.80;;;;;;5035576;28;20104;-65
2022/10/09 11:20:33;;;;;;;8.65;1.80;;;14.70;99.10;;;;;;5035013;28;20128;-65
2022/10/09 11:22:59;;;;;;;6.32;1.40;;;14.70;99.50;;;;;;5035198;28;20128;-64
2022/10/09 11:25:26;;;;;;;7.28;1.67;;;14.80;99.10;;;;;;5035189;28;20049;-63
2022/10/09 11:27:53;;;;;;;6.22;1.58;;;14.80;98.50;;;;;;5034958;28;20045;-67
2022/10/09 11:30:20;;;;;;;5.43;1.42;;;14.90;98.70;;;;;;5035920;28;20120;-63
2022/10/09 11:32:46;;;;;;;5.43;1.52;;;14.90;98.50;;;;;;5054429;28;20045;-66
2022/10/09 11:35:13;;;;;;;6.18;1.50;;;14.90;98.60;;;;;;5039143;28;20388;-64
2022/10/09 11:37:40;;;;;;;8.20;1.40;;;14.90;98.40;;;;;;5035571;28;20148;-64
2022/10/09 11:40:07;;;;;;;5.50;1.17;;;14.90;98.30;;;;;;5035245;28;20511;-63
2022/10/09 11:42:34;;;;;;;6.32;1.35;;;15.00;97.70;;;;;;5035273;28;20120;-64
2022/10/09 11:45:00;;;;;;;9.50;1.98;;;15.00;97.90;;;;;;5028489;28;20112;-62
2022/10/09 11:47:27;;;;;;;7.28;1.60;;;15.10;97.70;;;;;;5051295;28;20052;-62
2022/10/09 11:49:54;;;;;;;8.05;1.63;;;15.10;97.80;;;;;;5035099;28;20065;-63
2022/10/09 11:52:21;;;;;;;7.47;1.50;;;15.10;97.70;;;;;;5017292;28;20045;-66
2022/10/09 11:54:47;;;;;;;5.78;1.33;;;15.20;97.60;;;;;;5034876;28;20132;-64
2022/10/09 11:57:14;;;;;;;5.85;1.67;;;15.10;97.10;;;;;;5034917;28;20041;-65
2022/10/09 11:59:41;;;;;;;7.63;1.60;;;15.20;97.40;;;;;;5034109;28;20144;-65
2022/10/09 12:02:08;;;;;;;7.75;2.20;;;15.20;97.50;;;;;;5017100;28;20164;-64
2022/10/09 12:04:35;;;;;;;8.93;2.28;;;15.20;97.40;;;;;;5034174;28;20099;-63
2022/10/09 12:07:20;;;;;;;5.43;1.70;;;15.20;97.20;;;;;;5034955;28;20499;-64
2022/10/09 12:09:47;;;;;;;5.40;1.50;;;15.20;97.50;;;;;;5033990;28;20372;-63
2022/10/09 12:12:13;;;;;;;5.88;1.48;;;15.20;97.60;;;;;;5034644;28;20455;-64
2022/10/09 12:14:40;;;;;;;3.83;1.23;;;15.20;96.80;;;;;;5034164;28;20552;-63
2022/10/09 12:17:07;;;;;;;4.78;1.30;;;15.20;96.60;;;;;;5034453;28;20112;-64
2022/10/09 12:19:33;;;;;;;7.53;1.48;;;15.20;95.70;;;;;;5034553;28;20068;-65
2022/10/09 12:22:00;;;;;;;10.27;1.75;;;15.20;95.20;;;;;;5031931;28;20033;-62
2022/10/09 12:24:27;;;;;;;4.75;1.40;;;15.10;96.10;;;;;;5027704;28;20041;-64
2022/10/09 12:26:54;;;;;;;8.85;1.52;;;15.20;96.20;;;;;;5033971;28;20377;-64
2022/10/09 12:29:20;;;;;;;7.15;1.70;;;15.20;96.80;;;;;;5034107;28;20061;-64
2022/10/09 12:31:47;;;;;;;7.25;1.85;;;15.10;97.10;;;;;;5034154;28;20404;-64
2022/10/09 12:34:14;;;;;;;8.02;1.52;;;15.10;96.70;;;;;;5032678;28;20045;-62
2022/10/09 12:36:41;;;;;;;5.93;1.38;;;15.20;96.60;;;;;;5034232;28;20045;-63
2022/10/09 12:39:07;;;;;;;8.43;1.40;;;15.20;96.20;;;;;;5015945;28;20053;-68
2022/10/09 12:41:34;;;;;;;7.95;1.75;;;15.20;95.30;;;;;;5033931;28;20042;-64
2022/10/09 12:44:01;;;;;;;4.90;1.48;;;15.30;95.40;;;;;;5033931;28;20057;-66
2022/10/09 12:46:27;;;;;;;6.40;1.35;;;15.30;95.40;;;;;;5033440;28;20114;-62
2022/10/09 12:48:54;;;;;;;4.60;1.35;;;15.30;95.60;;;;;;5016321;28;20073;-64